sensor_id;sensor_type;location;lat;lon;timestamp;pressure;altitude;pressure_sealevel;temperature;humidity
12247;BME280;6186;52.022;4.692;2022-11-12T00:00:54;103248.53;;;8.88;100.00
12247;BME280;6186;52.022;4.692;2022-11-12T00:03:20;103252.03;;;8.87;100.00
12247;BME280;6186;52.022;4.692;2022-11-12T00:05:46;103244.97;;;8.86;100.00
12247;BME280;6186;52.022;4.692;2022-11-12T00:08:13;103242.34;;;8.86;100.00
12247;BME280;6186;52.022;4.692;2022-11-12T00:10:39;103241.41;;;8.82;100.00
12247;BME280;6186;52.022;4.692;2022-11-12T00:13:04;103246.63;;;8.81;100.00
12247;BME280;6186;52.022;4.692;2022-11-12T00:15:30;103254.53;;;8.82;100.00
12247;BME280;6186;52.022;4.692;2022-11-12T00:17:55;103246.66;;;8.82;100.00
12247;BME280;6186;52.022;4.692;2022-11-12T00:20:20;103244.97;;;8.86;100.00
12247;BME280;6186;52.022;4.692;2022-11-12T00:22:46;103243.31;;;8.89;100.00
12247;BME280;6186;52.022;4.692;2022-11-12T00:25:11;103244.41;;;8.99;100.00
12247;BME280;6186;52.022;4.692;2022-11-12T00:27:36;103243.63;;;9.04;100.00
12247;BME280;6186;52.022;4.692;2022-11-12T00:30:02;103238.31;;;9.03;100.00
12247;BME280;6186;52.022;4.692;2022-11-12T00:32:28;103242.75;;;9.05;100.00
12247;BME280;6186;52.022;4.692;2022-11-12T00:34:53;103248.25;;;9.17;100.00
12247;BME280;6186;52.022;4.692;2022-11-12T00:37:19;103237.78;;;9.20;100.00
12247;BME280;6186;52.022;4.692;2022-11-12T00:39:45;103242.25;;;9.24;100.00
12247;BME280;6186;52.022;4.692;2022-11-12T00:42:10;103241.47;;;9.28;100.00
12247;BME280;6186;52.022;4.692;2022-11-12T00:44:35;103244.19;;;9.33;100.00
12247;BME280;6186;52.022;4.692;2022-11-12T00:47:01;103245.06;;;9.35;100.00
12247;BME280;6186;52.022;4.692;2022-11-12T00:49:26;103247.78;;;9.38;100.00
12247;BME280;6186;52.022;4.692;2022-11-12T00:51:51;103252.22;;;9.42;100.00
12247;BME280;6186;52.022;4.692;2022-11-12T00:54:17;103247.88;;;9.44;100.00
12247;BME280;6186;52.022;4.692;2022-11-12T00:56:45;103242.66;;;9.45;100.00
12247;BME280;6186;52.022;4.692;2022-11-12T00:59:11;103232.13;;;9.45;100.00
12247;BME280;6186;52.022;4.692;2022-11-12T01:01:36;103226.94;;;9.50;100.00
12247;BME280;6186;52.022;4.692;2022-11-12T01:04:01;103236.66;;;9.54;100.00
12247;BME280;6186;52.022;4.692;2022-11-12T01:06:27;103230.56;;;9.55;100.00
12247;BME280;6186;52.022;4.692;2022-11-12T01:08:54;103227.94;;;9.55;100.00
12247;BME280;6186;52.022;4.692;2022-11-12T01:11:28;103228.81;;;9.56;100.00
12247;BME280;6186;52.022;4.692;2022-11-12T01:14:03;103231.44;;;9.56;100.00
12247;BME280;6186;52.022;4.692;2022-11-12T01:16:31;103243.84;;;9.63;100.00
12247;BME280;6186;52.022;4.692;2022-11-12T01:19:00;103247.31;;;9.62;100.00
12247;BME280;6186;52.022;4.692;2022-11-12T01:21:28;103246.47;;;9.63;100.00
12247;BME280;6186;52.022;4.692;2022-11-12T01:23:56;103249.09;;;9.63;100.00
12247;BME280;6186;52.022;4.692;2022-11-12T01:26:22;103255.38;;;9.71;100.00
12247;BME280;6186;52.022;4.692;2022-11-12T01:28:48;103242.25;;;9.72;100.00
12247;BME280;6186;52.022;4.692;2022-11-12T01:31:27;103249.28;;;9.75;100.00
12247;BME280;6186;52.022;4.692;2022-11-12T01:33:55;103248.44;;;9.77;100.00
12247;BME280;6186;52.022;4.692;2022-11-12T01:36:22;103251.09;;;9.79;100.00
12247;BME280;6186;52.022;4.692;2022-11-12T01:38:48;103254.66;;;9.81;100.00
12247;BME280;6186;52.022;4.692;2022-11-12T01:41:17;103252.91;;;9.81;100.00
12247;BME280;6186;52.022;4.692;2022-11-12T01:43:43;103248.53;;;9.82;100.00
12247;BME280;6186;52.022;4.692;2022-11-12T01:46:21;103241.50;;;9.82;100.00
12247;BME280;6186;52.022;4.692;2022-11-12T01:48:54;103242.38;;;9.80;100.00
12247;BME280;6186;52.022;4.692;2022-11-12T01:51:23;103240.66;;;9.82;100.00
12247;BME280;6186;52.022;4.692;2022-11-12T01:53:53;103236.25;;;9.82;100.00
12247;BME280;6186;52.022;4.692;2022-11-12T01:56:22;103229.19;;;9.78;100.00
12247;BME280;6186;52.022;4.692;2022-11-12T01:58:51;103238.03;;;9.82;100.00
12247;BME280;6186;52.022;4.692;2022-11-12T02:01:18;103237.16;;;9.83;100.00
12247;BME280;6186;52.022;4.692;2022-11-12T02:03:44;103234.50;;;9.83;100.00
12247;BME280;6186;52.022;4.692;2022-11-12T02:06:12;103232.75;;;9.82;100.00
12247;BME280;6186;52.022;4.692;2022-11-12T02:08:38;103235.41;;;9.83;100.00
12247;BME280;6186;52.022;4.692;2022-11-12T02:11:30;103230.13;;;9.82;100.00
12247;BME280;6186;52.022;4.692;2022-11-12T02:13:56;103231.88;;;9.83;100.00
12247;BME280;6186;52.022;4.692;2022-11-12T02:16:31;103228.34;;;9.81;100.00
12247;BME280;6186;52.022;4.692;2022-11-12T02:18:57;103230.13;;;9.82;100.00
12247;BME280;6186;52.022;4.692;2022-11-12T02:21:24;103216.09;;;9.83;100.00
12247;BME280;6186;52.022;4.692;2022-11-12T02:23:57;103222.25;;;9.83;100.00
12247;BME280;6186;52.022;4.692;2022-11-12T02:26:22;103222.28;;;9.85;100.00
12247;BME280;6186;52.022;4.692;2022-11-12T02:28:47;103215.28;;;9.85;100.00
12247;BME280;6186;52.022;4.692;2022-11-12T02:31:12;103224.06;;;9.87;100.00
12247;BME280;6186;52.022;4.692;2022-11-12T02:33:38;103212.66;;;9.85;100.00
12247;BME280;6186;52.022;4.692;2022-11-12T02:36:04;103209.19;;;9.88;100.00
12247;BME280;6186;52.022;4.692;2022-11-12T02:38:30;103207.44;;;9.90;100.00
12247;BME280;6186;52.022;4.692;2022-11-12T02:40:55;103205.69;;;9.89;100.00
12247;BME280;6186;52.022;4.692;2022-11-12T02:43:20;103201.31;;;9.89;100.00
12247;BME280;6186;52.022;4.692;2022-11-12T02:45:46;103194.25;;;9.87;100.00
12247;BME280;6186;52.022;4.692;2022-11-12T02:48:11;103196.06;;;9.91;100.00
12247;BME280;6186;52.022;4.692;2022-11-12T02:50:36;103194.31;;;9.91;100.00
12247;BME280;6186;52.022;4.692;2022-11-12T02:53:02;103202.25;;;9.93;100.00
12247;BME280;6186;52.022;4.692;2022-11-12T02:55:27;103200.44;;;9.92;100.00
12247;BME280;6186;52.022;4.692;2022-11-12T02:57:56;103201.34;;;9.92;100.00
12247;BME280;6186;52.022;4.692;2022-11-12T03:00:22;103198.66;;;9.88;100.00
12247;BME280;6186;52.022;4.692;2022-11-12T03:02:47;103196.97;;;9.93;100.00
12247;BME280;6186;52.022;4.692;2022-11-12T03:05:23;103195.19;;;9.92;100.00
12247;BME280;6186;52.022;4.692;2022-11-12T03:07:49;103210.94;;;9.87;100.00
12247;BME280;6186;52.022;4.692;2022-11-12T03:10:14;103217.00;;;9.85;100.00
12247;BME280;6186;52.022;4.692;2022-11-12T03:12:40;103217.88;;;9.84;100.00
12247;BME280;6186;52.022;4.692;2022-11-12T03:15:08;103215.25;;;9.84;100.00
12247;BME280;6186;52.022;4.692;2022-11-12T03:17:34;103205.56;;;9.83;100.00
12247;BME280;6186;52.022;4.692;2022-11-12T03:19:59;103213.50;;;9.84;100.00
12247;BME280;6186;52.022;4.692;2022-11-12T03:22:24;103210.84;;;9.83;100.00
12247;BME280;6186;52.022;4.692;2022-11-12T03:24:49;103209.94;;;9.81;100.00
12247;BME280;6186;52.022;4.692;2022-11-12T03:27:15;103199.31;;;9.75;100.00
12247;BME280;6186;52.022;4.692;2022-11-12T03:29:40;103206.38;;;9.77;100.00
12247;BME280;6186;52.022;4.692;2022-11-12T03:32:05;103208.97;;;9.76;100.00
12247;BME280;6186;52.022;4.692;2022-11-12T03:34:31;103217.72;;;9.75;100.00
12247;BME280;6186;52.022;4.692;2022-11-12T03:36:56;103211.59;;;9.74;100.00
12247;BME280;6186;52.022;4.692;2022-11-12T03:39:21;103214.22;;;9.73;100.00
12247;BME280;6186;52.022;4.692;2022-11-12T03:41:46;103208.88;;;9.70;100.00
12247;BME280;6186;52.022;4.692;2022-11-12T03:44:12;103213.25;;;9.69;100.00
12247;BME280;6186;52.022;4.692;2022-11-12T03:46:37;103215.94;;;9.71;100.00
12247;BME280;6186;52.022;4.692;2022-11-12T03:49:02;103208.94;;;9.73;100.00
12247;BME280;6186;52.022;4.692;2022-11-12T03:51:27;103210.66;;;9.71;100.00
12247;BME280;6186;52.022;4.692;2022-11-12T03:53:53;103207.13;;;9.69;100.00
12247;BME280;6186;52.022;4.692;2022-11-12T03:56:18;103221.13;;;9.68;100.00
12247;BME280;6186;52.022;4.692;2022-11-12T03:58:43;103209.66;;;9.63;100.00
12247;BME280;6186;52.022;4.692;2022-11-12T04:01:09;103216.56;;;9.58;100.00
12247;BME280;6186;52.022;4.692;2022-11-12T04:03:34;103210.41;;;9.56;100.00
12247;BME280;6186;52.022;4.692;2022-11-12T04:05:59;103211.16;;;9.48;100.00
12247;BME280;6186;52.022;4.692;2022-11-12T04:08:43;103216.28;;;9.41;100.00
12247;BME280;6186;52.022;4.692;2022-11-12T04:11:11;103217.91;;;9.33;100.00
12247;BME280;6186;52.022;4.692;2022-11-12T04:13:37;103221.22;;;9.24;100.00
12247;BME280;6186;52.022;4.692;2022-11-12T04:16:07;103226.38;;;9.18;100.00
12247;BME280;6186;52.022;4.692;2022-11-12T04:18:54;103213.09;;;9.12;100.00
12247;BME280;6186;52.022;4.692;2022-11-12T04:21:50;103213.84;;;9.05;100.00
12247;BME280;6186;52.022;4.692;2022-11-12T04:24:27;103216.34;;;8.98;100.00
12247;BME280;6186;52.022;4.692;2022-11-12T04:27:15;103217.97;;;8.91;100.00
12247;BME280;6186;52.022;4.692;2022-11-12T04:29:41;103219.59;;;8.86;100.00
12247;BME280;6186;52.022;4.692;2022-11-12T04:32:26;103216.81;;;8.77;100.00
12247;BME280;6186;52.022;4.692;2022-11-12T04:34:52;103219.38;;;8.74;100.00
12247;BME280;6186;52.022;4.692;2022-11-12T04:37:18;103218.34;;;8.66;100.00
12247;BME280;6186;52.022;4.692;2022-11-12T04:39:43;103210.31;;;8.59;100.00
12247;BME280;6186;52.022;4.692;2022-11-12T04:42:09;103211.91;;;8.53;100.00
12247;BME280;6186;52.022;4.692;2022-11-12T04:44:53;103208.34;;;8.50;100.00
12247;BME280;6186;52.022;4.692;2022-11-12T04:47:54;103212.66;;;8.46;100.00
12247;BME280;6186;52.022;4.692;2022-11-12T04:50:19;103197.63;;;8.38;100.00
12247;BME280;6186;52.022;4.692;2022-11-12T04:52:44;103201.09;;;8.38;100.00
12247;BME280;6186;52.022;4.692;2022-11-12T04:55:10;103202.78;;;8.35;100.00
12247;BME280;6186;52.022;4.692;2022-11-12T04:57:36;103198.41;;;8.34;100.00
12247;BME280;6186;52.022;4.692;2022-11-12T05:00:03;103196.56;;;8.30;100.00
12247;BME280;6186;52.022;4.692;2022-11-12T05:02:28;103197.38;;;8.29;100.00
12247;BME280;6186;52.022;4.692;2022-11-12T05:04:54;103191.00;;;8.18;100.00
12247;BME280;6186;52.022;4.692;2022-11-12T05:07:19;103196.31;;;8.19;100.00
12247;BME280;6186;52.022;4.692;2022-11-12T05:09:44;103193.56;;;8.15;100.00
12247;BME280;6186;52.022;4.692;2022-11-12T05:12:10;103202.22;;;8.11;100.00
12247;BME280;6186;52.022;4.692;2022-11-12T05:14:35;103192.59;;;8.10;100.00
12247;BME280;6186;52.022;4.692;2022-11-12T05:17:00;103195.19;;;8.10;100.00
12247;BME280;6186;52.022;4.692;2022-11-12T05:19:26;103181.16;;;8.08;100.00
12247;BME280;6186;52.022;4.692;2022-11-12T05:21:51;103189.88;;;8.07;100.00
12247;BME280;6186;52.022;4.692;2022-11-12T05:24:42;103180.25;;;8.06;100.00
12247;BME280;6186;52.022;4.692;2022-11-12T05:27:14;103183.81;;;8.09;100.00
12247;BME280;6186;52.022;4.692;2022-11-12T05:29:40;103181.19;;;8.09;100.00
12247;BME280;6186;52.022;4.692;2022-11-12T05:32:07;103177.59;;;8.04;100.00
12247;BME280;6186;52.022;4.692;2022-11-12T05:34:32;103180.31;;;8.09;100.00
12247;BME280;6186;52.022;4.692;2022-11-12T05:36:59;103181.06;;;8.05;100.00
12247;BME280;6186;52.022;4.692;2022-11-12T05:39:25;103173.25;;;8.06;100.00
12247;BME280;6186;52.022;4.692;2022-11-12T05:41:51;103167.97;;;8.05;100.00
12247;BME280;6186;52.022;4.692;2022-11-12T05:44:16;103174.91;;;8.03;100.00
12247;BME280;6186;52.022;4.692;2022-11-12T05:46:41;103187.97;;;8.00;100.00
12247;BME280;6186;52.022;4.692;2022-11-12T05:49:07;103171.19;;;7.93;100.00
12247;BME280;6186;52.022;4.692;2022-11-12T05:51:33;103174.72;;;7.95;100.00
12247;BME280;6186;52.022;4.692;2022-11-12T05:53:59;103171.09;;;7.89;100.00
12247;BME280;6186;52.022;4.692;2022-11-12T05:56:25;103172.88;;;7.91;100.00
12247;BME280;6186;52.022;4.692;2022-11-12T05:58:50;103171.94;;;7.88;100.00
12247;BME280;6186;52.022;4.692;2022-11-12T06:01:15;103179.72;;;7.83;100.00
12247;BME280;6186;52.022;4.692;2022-11-12T06:03:41;103176.19;;;7.83;100.00
12247;BME280;6186;52.022;4.692;2022-11-12T06:06:06;103183.16;;;7.81;100.00
12247;BME280;6186;52.022;4.692;2022-11-12T06:08:31;103184.84;;;7.79;100.00
12247;BME280;6186;52.022;4.692;2022-11-12T06:10:57;103188.31;;;7.78;100.00
12247;BME280;6186;52.022;4.692;2022-11-12T06:13:23;103174.16;;;7.70;100.00
12247;BME280;6186;52.022;4.692;2022-11-12T06:15:49;103192.59;;;7.74;100.00
12247;BME280;6186;52.022;4.692;2022-11-12T06:18:15;103189.91;;;7.71;100.00
12247;BME280;6186;52.022;4.692;2022-11-12T06:20:40;103204.75;;;7.71;100.00
12247;BME280;6186;52.022;4.692;2022-11-12T06:23:06;103204.69;;;7.68;100.00
12247;BME280;6186;52.022;4.692;2022-11-12T06:25:31;103199.28;;;7.61;100.00
12247;BME280;6186;52.022;4.692;2022-11-12T06:27:56;103199.28;;;7.61;100.00
12247;BME280;6186;52.022;4.692;2022-11-12T06:30:22;103194.00;;;7.60;100.00
12247;BME280;6186;52.022;4.692;2022-11-12T06:32:48;103194.81;;;7.57;100.00
12247;BME280;6186;52.022;4.692;2022-11-12T06:35:15;103193.88;;;7.55;100.00
12247;BME280;6186;52.022;4.692;2022-11-12T06:37:40;103199.88;;;7.51;100.00
12247;BME280;6186;52.022;4.692;2022-11-12T06:40:06;103196.31;;;7.48;100.00
12247;BME280;6186;52.022;4.692;2022-11-12T06:42:32;103202.38;;;7.45;100.00
12247;BME280;6186;52.022;4.692;2022-11-12T06:44:58;103193.50;;;7.40;100.00
12247;BME280;6186;52.022;4.692;2022-11-12T06:47:23;103204.91;;;7.42;100.00
12247;BME280;6186;52.022;4.692;2022-11-12T06:49:48;103203.97;;;7.40;100.00
12247;BME280;6186;52.022;4.692;2022-11-12T06:52:14;103201.34;;;7.40;100.00
12247;BME280;6186;52.022;4.692;2022-11-12T06:54:40;103206.59;;;7.40;100.00
12247;BME280;6186;52.022;4.692;2022-11-12T06:57:05;103187.16;;;7.32;100.00
12247;BME280;6186;52.022;4.692;2022-11-12T06:59:30;103207.47;;;7.39;100.00
12247;BME280;6186;52.022;4.692;2022-11-12T07:01:56;103215.38;;;7.42;100.00
12247;BME280;6186;52.022;4.692;2022-11-12T07:04:23;103217.09;;;7.42;100.00
12247;BME280;6186;52.022;4.692;2022-11-12T07:06:48;103213.53;;;7.38;100.00
12247;BME280;6186;52.022;4.692;2022-11-12T07:09:13;103222.41;;;7.43;100.00
12247;BME280;6186;52.022;4.692;2022-11-12T07:11:38;103225.03;;;7.43;100.00
12247;BME280;6186;52.022;4.692;2022-11-12T07:14:05;103219.69;;;7.40;100.00
12247;BME280;6186;52.022;4.692;2022-11-12T07:16:31;103230.34;;;7.46;100.00
12247;BME280;6186;52.022;4.692;2022-11-12T07:18:56;103227.69;;;7.45;100.00
12247;BME280;6186;52.022;4.692;2022-11-12T07:21:21;103233.00;;;7.48;100.00
12247;BME280;6186;52.022;4.692;2022-11-12T07:23:47;103225.13;;;7.48;100.00
12247;BME280;6186;52.022;4.692;2022-11-12T07:28:39;103223.47;;;7.51;100.00
12247;BME280;6186;52.022;4.692;2022-11-12T07:31:07;103218.16;;;7.48;100.00
12247;BME280;6186;52.022;4.692;2022-11-12T07:33:34;103229.66;;;7.53;100.00
12247;BME280;6186;52.022;4.692;2022-11-12T07:36:02;103229.75;;;7.56;100.00
12247;BME280;6186;52.022;4.692;2022-11-12T07:38:29;103230.66;;;7.58;100.00
12247;BME280;6186;52.022;4.692;2022-11-12T07:40:59;103227.19;;;7.59;100.00
12247;BME280;6186;52.022;4.692;2022-11-12T07:43:26;103237.81;;;7.66;100.00
12247;BME280;6186;52.022;4.692;2022-11-12T07:45:51;103223.06;;;7.69;100.00
12247;BME280;6186;52.022;4.692;2022-11-12T07:48:16;103232.81;;;7.75;100.00
12247;BME280;6186;52.022;4.692;2022-11-12T07:50:42;103232.00;;;7.77;100.00
12247;BME280;6186;52.022;4.692;2022-11-12T07:53:07;103225.09;;;7.81;100.00
12247;BME280;6186;52.022;4.692;2022-11-12T07:55:35;103226.97;;;7.86;100.00
12247;BME280;6186;52.022;4.692;2022-11-12T07:58:01;103225.34;;;7.91;100.00
12247;BME280;6186;52.022;4.692;2022-11-12T08:00:26;103233.31;;;7.96;100.00
12247;BME280;6186;52.022;4.692;2022-11-12T08:02:51;103235.22;;;8.03;100.00
12247;BME280;6186;52.022;4.692;2022-11-12T08:05:17;103237.91;;;8.04;100.00
12247;BME280;6186;52.022;4.692;2022-11-12T08:07:42;103236.34;;;8.12;100.00
12247;BME280;6186;52.022;4.692;2022-11-12T08:10:08;103229.41;;;8.16;100.00
12247;BME280;6186;52.022;4.692;2022-11-12T08:12:33;103226.94;;;8.22;100.00
12247;BME280;6186;52.022;4.692;2022-11-12T08:14:58;103234.13;;;8.29;100.00
12247;BME280;6186;52.022;4.692;2022-11-12T08:17:24;103237.75;;;8.34;100.00
12247;BME280;6186;52.022;4.692;2022-11-12T08:19:49;103228.19;;;8.36;100.00
12247;BME280;6186;52.022;4.692;2022-11-12T08:22:19;103237.16;;;8.45;100.00
12247;BME280;6186;52.022;4.692;2022-11-12T08:24:44;103237.38;;;8.56;100.00
12247;BME280;6186;52.022;4.692;2022-11-12T08:27:10;103239.38;;;8.68;100.00
12247;BME280;6186;52.022;4.692;2022-11-12T08:29:35;103246.63;;;8.79;100.00
12247;BME280;6186;52.022;4.692;2022-11-12T08:32:00;103242.47;;;8.90;100.00
12247;BME280;6186;52.022;4.692;2022-11-12T08:34:26;103245.25;;;8.99;100.00
12247;BME280;6186;52.022;4.692;2022-11-12T08:36:51;103252.31;;;9.02;100.00
12247;BME280;6186;52.022;4.692;2022-11-12T08:39:16;103234.72;;;8.96;100.00
12247;BME280;6186;52.022;4.692;2022-11-12T08:41:41;103248.97;;;9.09;100.00
12247;BME280;6186;52.022;4.692;2022-11-12T08:44:07;103244.75;;;9.18;100.00
12247;BME280;6186;52.022;4.692;2022-11-12T08:46:32;103250.09;;;9.21;100.00
12247;BME280;6186;52.022;4.692;2022-11-12T08:48:57;103232.50;;;9.17;100.00
12247;BME280;6186;52.022;4.692;2022-11-12T08:51:23;103239.50;;;9.18;100.00
12247;BME280;6186;52.022;4.692;2022-11-12T08:53:48;103240.41;;;9.20;100.00
12247;BME280;6186;52.022;4.692;2022-11-12T08:56:13;103229.13;;;9.24;100.00
12247;BME280;6186;52.022;4.692;2022-11-12T08:58:39;103233.63;;;9.31;100.00
12247;BME280;6186;52.022;4.692;2022-11-12T09:01:05;103236.31;;;9.33;100.00
12247;BME280;6186;52.022;4.692;2022-11-12T09:03:31;103240.81;;;9.40;100.00
12247;BME280;6186;52.022;4.692;2022-11-12T09:05:56;103254.09;;;9.47;100.00
12247;BME280;6186;52.022;4.692;2022-11-12T09:08:23;103249.75;;;9.49;100.00
12247;BME280;6186;52.022;4.692;2022-11-12T09:10:49;103250.59;;;9.50;100.00
12247;BME280;6186;52.022;4.692;2022-11-12T09:13:15;103253.22;;;9.50;100.00
12247;BME280;6186;52.022;4.692;2022-11-12T09:15:42;103246.25;;;9.52;100.00
12247;BME280;6186;52.022;4.692;2022-11-12T09:18:13;103248.06;;;9.55;100.00
12247;BME280;6186;52.022;4.692;2022-11-12T09:20:39;103253.38;;;9.58;100.00
12247;BME280;6186;52.022;4.692;2022-11-12T09:23:08;103246.47;;;9.63;100.00
12247;BME280;6186;52.022;4.692;2022-11-12T09:25:34;103255.31;;;9.69;100.00
12247;BME280;6186;52.022;4.692;2022-11-12T09:28:10;103249.28;;;9.75;100.00
12247;BME280;6186;52.022;4.692;2022-11-12T09:30:40;103251.16;;;9.80;100.00
12247;BME280;6186;52.022;4.692;2022-11-12T09:33:05;103240.75;;;9.88;100.00
12247;BME280;6186;52.022;4.692;2022-11-12T09:35:30;103235.56;;;9.94;100.00
12247;BME280;6186;52.022;4.692;2022-11-12T09:37:57;103235.78;;;10.09;100.00
12247;BME280;6186;52.022;4.692;2022-11-12T09:40:33;103230.84;;;10.27;100.00
12247;BME280;6186;52.022;4.692;2022-11-12T09:43:09;103233.69;;;10.40;100.00
12247;BME280;6186;52.022;4.692;2022-11-12T09:45:36;103224.97;;;10.45;100.00
12247;BME280;6186;52.022;4.692;2022-11-12T09:48:05;103239.19;;;10.57;100.00
12247;BME280;6186;52.022;4.692;2022-11-12T09:50:40;103235.72;;;10.61;100.00
12247;BME280;6186;52.022;4.692;2022-11-12T09:53:14;103239.34;;;10.69;100.00
12247;BME280;6186;52.022;4.692;2022-11-12T09:55:43;103235.03;;;10.77;100.00
12247;BME280;6186;52.022;4.692;2022-11-12T09:58:13;103247.47;;;10.90;100.00
12247;BME280;6186;52.022;4.692;2022-11-12T10:00:42;103235.38;;;11.07;100.00
12247;BME280;6186;52.022;4.692;2022-11-12T10:03:13;103244.44;;;11.30;100.00
12247;BME280;6186;52.022;4.692;2022-11-12T10:06:21;103242.00;;;11.50;100.00
12247;BME280;6186;52.022;4.692;2022-11-12T10:09:01;103247.34;;;11.58;100.00
12247;BME280;6186;52.022;4.692;2022-11-12T10:12:10;103237.72;;;11.63;100.00
12247;BME280;6186;52.022;4.692;2022-11-12T10:17:40;103229.09;;;11.80;100.00
12247;BME280;6186;52.022;4.692;2022-11-12T10:20:27;103223.94;;;12.00;100.00
12247;BME280;6186;52.022;4.692;2022-11-12T10:25:25;103242.78;;;12.56;100.00
12247;BME280;6186;52.022;4.692;2022-11-12T10:27:54;103249.97;;;12.82;100.00
12247;BME280;6186;52.022;4.692;2022-11-12T10:30:21;103240.34;;;13.02;100.00
12247;BME280;6186;52.022;4.692;2022-11-12T10:32:50;103234.25;;;13.23;100.00
12247;BME280;6186;52.022;4.692;2022-11-12T10:35:18;103248.44;;;13.69;100.00
12247;BME280;6186;52.022;4.692;2022-11-12T10:37:56;103237.84;;;14.31;100.00
12247;BME280;6186;52.022;4.692;2022-11-12T10:45:22;103245.50;;;16.18;100.00
12247;BME280;6186;52.022;4.692;2022-11-12T10:47:47;103256.22;;;16.92;100.00
12247;BME280;6186;52.022;4.692;2022-11-12T10:50:29;103251.72;;;17.60;100.00
12247;BME280;6186;52.022;4.692;2022-11-12T10:53:04;103236.78;;;18.03;100.00
12247;BME280;6186;52.022;4.692;2022-11-12T10:55:35;103248.69;;;18.31;100.00
12247;BME280;6186;52.022;4.692;2022-11-12T11:00:36;103239.38;;;18.96;100.00
12247;BME280;6186;52.022;4.692;2022-11-12T11:03:09;103238.91;;;19.16;100.00
12247;BME280;6186;52.022;4.692;2022-11-12T11:05:57;103236.13;;;18.82;100.00
12247;BME280;6186;52.022;4.692;2022-11-12T11:08:32;103242.66;;;18.22;100.00
12247;BME280;6186;52.022;4.692;2022-11-12T11:11:13;103226.16;;;17.48;100.00
12247;BME280;6186;52.022;4.692;2022-11-12T11:13:42;103226.97;;;16.91;100.00
12247;BME280;6186;52.022;4.692;2022-11-12T11:16:13;103236.28;;;16.57;100.00
12247;BME280;6186;52.022;4.692;2022-11-12T11:18:41;103233.69;;;16.49;100.00
12247;BME280;6186;52.022;4.692;2022-11-12T11:21:28;103223.66;;;16.74;100.00
12247;BME280;6186;52.022;4.692;2022-11-12T11:24:00;103222.34;;;17.04;100.00
12247;BME280;6186;52.022;4.692;2022-11-12T11:26:48;103222.63;;;17.98;100.00
12247;BME280;6186;52.022;4.692;2022-11-12T11:32:17;103215.41;;;20.03;100.00
12247;BME280;6186;52.022;4.692;2022-11-12T11:37:29;103206.34;;;21.56;100.00
12247;BME280;6186;52.022;4.692;2022-11-12T11:56:35;103173.91;;;24.71;100.00
12247;BME280;6186;52.022;4.692;2022-11-12T12:02:21;103155.84;;;25.10;100.00
12247;BME280;6186;52.022;4.692;2022-11-12T12:07:45;103159.13;;;25.52;100.00
12247;BME280;6186;52.022;4.692;2022-11-12T12:13:19;103137.22;;;25.92;100.00
12247;BME280;6186;52.022;4.692;2022-11-12T12:16:13;103130.88;;;26.11;100.00
12247;BME280;6186;52.022;4.692;2022-11-12T12:21:20;103132.34;;;26.49;100.00
12247;BME280;6186;52.022;4.692;2022-11-12T12:23:47;103117.09;;;26.63;100.00
12247;BME280;6186;52.022;4.692;2022-11-12T12:26:26;103121.22;;;26.86;100.00
12247;BME280;6186;52.022;4.692;2022-11-12T12:31:32;103115.94;;;27.30;100.00
12247;BME280;6186;52.022;4.692;2022-11-12T12:34:03;103125.31;;;27.54;100.00
12247;BME280;6186;52.022;4.692;2022-11-12T12:36:39;103124.31;;;27.70;100.00
12247;BME280;6186;52.022;4.692;2022-11-12T12:39:13;103112.56;;;27.85;100.00
12247;BME280;6186;52.022;4.692;2022-11-12T12:44:09;103118.91;;;28.14;100.00
12247;BME280;6186;52.022;4.692;2022-11-12T12:47:06;103109.88;;;28.28;100.00
12247;BME280;6186;52.022;4.692;2022-11-12T12:49:35;103098.75;;;28.32;100.00
12247;BME280;6186;52.022;4.692;2022-11-12T12:52:01;103091.56;;;28.45;100.00
12247;BME280;6186;52.022;4.692;2022-11-12T12:57:03;103084.69;;;28.68;100.00
12247;BME280;6186;52.022;4.692;2022-11-12T12:59:28;103072.56;;;28.73;100.00
12247;BME280;6186;52.022;4.692;2022-11-12T13:01:59;103078.75;;;28.75;100.00
12247;BME280;6186;52.022;4.692;2022-11-12T13:07:37;103078.13;;;28.85;100.00
12247;BME280;6186;52.022;4.692;2022-11-12T13:10:43;103077.44;;;28.95;100.00
12247;BME280;6186;52.022;4.692;2022-11-12T13:15:47;103062.44;;;28.90;100.00
12247;BME280;6186;52.022;4.692;2022-11-12T13:21:11;103051.47;;;26.77;100.00
12247;BME280;6186;52.022;4.692;2022-11-12T13:26:49;103038.09;;;24.39;100.00
12247;BME280;6186;52.022;4.692;2022-11-12T13:32:22;103034.00;;;22.91;100.00
12247;BME280;6186;52.022;4.692;2022-11-12T13:34:34;103024.88;;;22.29;100.00
12247;BME280;6186;52.022;4.692;2022-11-12T13:37:04;103034.00;;;21.77;100.00
12247;BME280;6186;52.022;4.692;2022-11-12T13:39:34;103029.31;;;21.34;100.00
12247;BME280;6186;52.022;4.692;2022-11-12T13:42:10;103026.00;;;21.02;100.00
12247;BME280;6186;52.022;4.692;2022-11-12T13:44:55;103011.00;;;20.69;100.00
12247;BME280;6186;52.022;4.692;2022-11-12T13:47:23;103028.19;;;20.61;100.00
12247;BME280;6186;52.022;4.692;2022-11-12T13:49:50;103027.88;;;20.71;100.00
12247;BME280;6186;52.022;4.692;2022-11-12T13:52:17;103013.75;;;20.93;100.00
12247;BME280;6186;52.022;4.692;2022-11-12T13:54:43;103038.63;;;21.49;100.00
12247;BME280;6186;52.022;4.692;2022-11-12T13:57:31;103035.13;;;21.47;100.00
12247;BME280;6186;52.022;4.692;2022-11-12T14:02:43;103049.53;;;20.65;100.00
12247;BME280;6186;52.022;4.692;2022-11-12T14:05:21;103049.84;;;20.26;100.00
12247;BME280;6186;52.022;4.692;2022-11-12T14:08:17;103050.66;;;19.98;100.00
12247;BME280;6186;52.022;4.692;2022-11-12T14:14:04;103057.50;;;19.45;100.00
12247;BME280;6186;52.022;4.692;2022-11-12T14:16:58;103057.06;;;19.26;100.00
12247;BME280;6186;52.022;4.692;2022-11-12T14:22:20;103054.34;;;18.93;100.00
12247;BME280;6186;52.022;4.692;2022-11-12T14:24:51;103047.66;;;18.76;100.00
12247;BME280;6186;52.022;4.692;2022-11-12T14:30:22;103030.69;;;18.41;100.00